Time;durP1;ratioP1;P1;durP2;ratioP2;P2;SDS_P1;SDS_P2;PMS_P1;PMS_P2;Temp;Humidity;BMP_temperature;BMP_pressure;BME280_temperature;BME280_humidity;BME280_pressure;Samples;Min_cycle;Max_cycle;Signal;HPM_P1;HPM_P2
2023/01/24 00:00:08;;;;;;;;;;;;;;;;;;1041350;28;3936;-49
2023/01/24 00:00:58;;;;;;;;;;;;;;;;;;1035823;28;3852;-53
2023/01/24 00:01:28;;;;;;;;;;;;;;;;;;1036562;28;2915;-49
2023/01/24 00:01:59;;;;;;;;;;;;;;;;;;1035776;28;3985;-53
2023/01/24 00:02:29;;;;;;;;;;;;;;;;;;1038076;28;2831;-49
2023/01/24 00:02:59;;;;;;;;;;;;;;;;;;1040324;28;3937;-48
2023/01/24 00:03:29;;;;;;;;;;;;;;;;;;1039106;28;2846;-53
2023/01/24 00:04:00;;;;;;;;;;;;;;;;;;1039191;28;3889;-51
2023/01/24 00:04:30;;;;;;;;;;;;;;;;;;1041451;28;2537;-46
2023/01/24 00:05:00;;;;;;;;;;;;;;;;;;1040592;28;4054;-53
2023/01/24 00:05:33;;;;;;;;;;;;;;;;;;1040696;28;2241;-49
2023/01/24 00:06:04;;;;;;;;;;;;;;;;;;1039931;28;4144;-47
2023/01/24 00:06:34;;;;;;;;;;;;;;;;;;1040376;28;1985;-51
2023/01/24 00:07:04;;;;;;;;;;;;;;;;;;1041679;28;4043;-47
2023/01/24 00:07:34;;;;;;;;;;;;;;;;;;1040588;28;1779;-51
2023/01/24 00:08:05;;;;;;;;;;;;;;;;;;1040033;28;3770;-48
2023/01/24 00:08:35;;;;;;;;;;;;;;;;;;1040126;28;2929;-50
2023/01/24 00:09:05;;;;;;;;;;;;;;;;;;1041902;28;4326;-49
2023/01/24 00:09:36;;;;;;;;;;;;;;;;;;1042122;28;2579;-47
2023/01/24 00:10:06;;;;;;;;;;;;;;;;;;1039748;28;3935;-52
2023/01/24 00:10:36;;;;;;;;;;;;;;;;;;1041899;28;2373;-48
2023/01/24 00:11:08;;;;;;;;;;;;;;;;;;1041255;28;3866;-52
2023/01/24 00:11:38;;;;;;;;;;;;;;;;;;1038300;28;2904;-51
2023/01/24 00:12:09;;;;;;;;;;;;;;;;;;1039370;28;4540;-51
2023/01/24 00:12:39;;;;;;;;;;;;;;;;;;1040943;28;2983;-50
2023/01/24 00:13:11;;;;;;;;;;;;;;;;;;1039548;28;3909;-49
2023/01/24 00:13:41;;;;;;;;;;;;;;;;;;1041716;28;4062;-52
2023/01/24 00:14:11;;;;;;;;;;;;;;;;;;1042966;28;1939;-53
2023/01/24 00:14:41;;;;;;;;;;;;;;;;;;1039622;28;3978;-50
2023/01/24 00:15:12;;;;;;;;;;;;;;;;;;1042371;28;2653;-49
2023/01/24 00:15:42;;;;;;;;;;;;;;;;;;1038614;28;3984;-51
2023/01/24 00:16:14;;;;;;;;;;;;;;;;;;1042048;28;1728;-50
2023/01/24 00:16:44;;;;;;;;;;;;;;;;;;1039077;28;3911;-52
2023/01/24 00:17:15;;;;;;;;;;;;;;;;;;1040276;28;2913;-51
2023/01/24 00:17:45;;;;;;;;;;;;;;;;;;1039337;28;4298;-51
2023/01/24 00:18:15;;;;;;;;;;;;;;;;;;1041432;28;2215;-50
2023/01/24 00:18:46;;;;;;;;;;;;;;;;;;1039399;28;4433;-47
2023/01/24 00:19:16;;;;;;;;;;;;;;;;;;1039878;28;1686;-53
2023/01/24 00:19:47;;;;;;;;;;;;;;;;;;1038659;28;3992;-52
2023/01/24 00:20:17;;;;;;;;;;;;;;;;;;1039640;28;3108;-54
2023/01/24 00:20:47;;;;;;;;;;;;;;;;;;1039424;28;3961;-52
2023/01/24 00:21:19;;;;;;;;;;;;;;;;;;1040646;28;2381;-50
2023/01/24 00:21:49;;;;;;;;;;;;;;;;;;1039808;28;3952;-50
2023/01/24 00:22:20;;;;;;;;;;;;;;;;;;1039662;28;2617;-52
2023/01/24 00:22:50;;;;;;;;;;;;;;;;;;1042062;28;3990;-47
2023/01/24 00:23:20;;;;;;;;;;;;;;;;;;1041679;28;2394;-52
2023/01/24 00:23:58;;;;;;;;;;;;;;;;;;1038336;28;4032;-51
2023/01/24 00:24:35;;;;;;;;;;;;;;;;;;1041444;28;1225;-49
2023/01/24 00:25:06;;;;;;;;;;;;;;;;;;1041084;28;3733;-50
2023/01/24 00:25:36;;;;;;;;;;;;;;;;;;1041505;28;1687;-52
2023/01/24 00:26:07;;;;;;;;;;;;;;;;;;1039699;28;4210;-50
2023/01/24 00:26:37;;;;;;;;;;;;;;;;;;1041589;28;1967;-52
2023/01/24 00:27:07;;;;;;;;;;;;;;;;;;1039756;28;3743;-49
2023/01/24 00:27:37;;;;;;;;;;;;;;;;;;1038543;28;1885;-52
2023/01/24 00:28:08;;;;;;;;;;;;;;;;;;1038584;28;3893;-51
2023/01/24 00:28:38;;;;;;;;;;;;;;;;;;1040313;28;3493;-53
2023/01/24 00:29:15;;;;;;;;;;;;;;;;;;1041435;28;3864;-53
2023/01/24 00:29:45;;;;;;;;;;;;;;;;;;1041051;28;4430;-51
2023/01/24 00:30:15;;;;;;;;;;;;;;;;;;1039549;28;3153;-51
2023/01/24 00:30:46;;;;;;;;;;;;;;;;;;1039760;28;4577;-49
2023/01/24 00:31:16;;;;;;;;;;;;;;;;;;1040284;28;2351;-54
2023/01/24 00:31:46;;;;;;;;;;;;;;;;;;1039395;28;3836;-55
2023/01/24 00:32:17;;;;;;;;;;;;;;;;;;1039600;28;2703;-53
2023/01/24 00:32:47;;;;;;;;;;;;;;;;;;1040355;28;3956;-48
2023/01/24 00:33:17;;;;;;;;;;;;;;;;;;1040146;28;1997;-54
2023/01/24 00:33:48;;;;;;;;;;;;;;;;;;1037967;28;3785;-49
2023/01/24 00:34:18;;;;;;;;;;;;;;;;;;1039575;28;2566;-51
2023/01/24 00:34:48;;;;;;;;;;;;;;;;;;1041757;28;4080;-51
2023/01/24 00:35:18;;;;;;;;;;;;;;;;;;1041731;28;2290;-50
2023/01/24 00:35:50;;;;;;;;;;;;;;;;;;1038608;28;4069;-50
2023/01/24 00:36:20;;;;;;;;;;;;;;;;;;1040959;28;2674;-49
2023/01/24 00:36:50;;;;;;;;;;;;;;;;;;1039145;28;4407;-49
2023/01/24 00:37:21;;;;;;;;;;;;;;;;;;1040492;28;2106;-53
2023/01/24 00:37:51;;;;;;;;;;;;;;;;;;1040973;28;3815;-47
2023/01/24 00:38:21;;;;;;;;;;;;;;;;;;1035426;28;2805;-51
2023/01/24 00:38:52;;;;;;;;;;;;;;;;;;1036435;28;4435;-51
2023/01/24 00:39:23;;;;;;;;;;;;;;;;;;1037679;28;2101;-52
2023/01/24 00:39:53;;;;;;;;;;;;;;;;;;1037045;28;4059;-52
2023/01/24 00:40:23;;;;;;;;;;;;;;;;;;1041388;28;3088;-47
2023/01/24 00:40:53;;;;;;;;;;;;;;;;;;1035855;28;4270;-47
2023/01/24 00:41:24;;;;;;;;;;;;;;;;;;1036094;28;2178;-47
2023/01/24 00:41:54;;;;;;;;;;;;;;;;;;1036480;28;4072;-50
2023/01/24 00:42:24;;;;;;;;;;;;;;;;;;1035218;28;2866;-51
2023/01/24 00:42:54;;;;;;;;;;;;;;;;;;1040725;28;4142;-50
2023/01/24 00:43:26;;;;;;;;;;;;;;;;;;1040950;28;2884;-50
2023/01/24 00:43:56;;;;;;;;;;;;;;;;;;1038691;28;4050;-52
2023/01/24 00:44:27;;;;;;;;;;;;;;;;;;1040704;28;2348;-48
2023/01/24 00:44:57;;;;;;;;;;;;;;;;;;1039586;28;4039;-48
2023/01/24 00:45:27;;;;;;;;;;;;;;;;;;1040714;28;3090;-49
2023/01/24 00:45:58;;;;;;;;;;;;;;;;;;1036199;28;3811;-48
2023/01/24 00:46:28;;;;;;;;;;;;;;;;;;1034199;28;3196;-49
2023/01/24 00:46:58;;;;;;;;;;;;;;;;;;1031315;28;4255;-48
2023/01/24 00:47:28;;;;;;;;;;;;;;;;;;1032110;28;3061;-52
2023/01/24 00:47:59;;;;;;;;;;;;;;;;;;1029613;28;3799;-51
2023/01/24 00:48:29;;;;;;;;;;;;;;;;;;1036566;28;2289;-49
2023/01/24 00:49:00;;;;;;;;;;;;;;;;;;1034061;28;3961;-54
2023/01/24 00:49:30;;;;;;;;;;;;;;;;;;1040678;28;2935;-49
2023/01/24 00:50:00;;;;;;;;;;;;;;;;;;1041112;28;4043;-53
2023/01/24 00:50:31;;;;;;;;;;;;;;;;;;1039522;28;3211;-52
2023/01/24 00:51:01;;;;;;;;;;;;;;;;;;1038838;28;4450;-52
2023/01/24 00:51:32;;;;;;;;;;;;;;;;;;1039734;28;2985;-49
2023/01/24 00:52:02;;;;;;;;;;;;;;;;;;1039590;28;4393;-52
2023/01/24 00:52:32;;;;;;;;;;;;;;;;;;1036279;28;2537;-50
2023/01/24 00:53:03;;;;;;;;;;;;;;;;;;1034348;28;3950;-49
2023/01/24 00:53:33;;;;;;;;;;;;;;;;;;1035857;28;2113;-51
2023/01/24 00:54:04;;;;;;;;;;;;;;;;;;1030328;28;3909;-51
2023/01/24 00:54:34;;;;;;;;;;;;;;;;;;1035309;28;2922;-49
2023/01/24 00:55:04;;;;;;;;;;;;;;;;;;1035318;28;4240;-52
2023/01/24 00:55:40;;;;;;;;;;;;;;;;;;1035863;28;3055;-48
2023/01/24 00:56:10;;;;;;;;;;;;;;;;;;1039893;28;4168;-49
2023/01/24 00:56:40;;;;;;;;;;;;;;;;;;1039425;28;4009;-48
2023/01/24 00:57:11;;;;;;;;;;;;;;;;;;1039295;28;1770;-50
2023/01/24 00:57:41;;;;;;;;;;;;;;;;;;1037839;28;4250;-53
2023/01/24 00:58:11;;;;;;;;;;;;;;;;;;1039212;28;1643;-50
2023/01/24 00:58:42;;;;;;;;;;;;;;;;;;1034561;28;4114;-49
2023/01/24 00:59:12;;;;;;;;;;;;;;;;;;1036061;28;2852;-50
2023/01/24 00:59:42;;;;;;;;;;;;;;;;;;1035930;28;4502;-51
2023/01/24 01:00:13;;;;;;;;;;;;;;;;;;1034603;28;3054;-53
2023/01/24 01:00:43;;;;;;;;;;;;;;;;;;1039361;28;4238;-47
2023/01/24 01:01:14;;;;;;;;;;;;;;;;;;1036362;28;3119;-55
2023/01/24 01:01:44;;;;;;;;;;;;;;;;;;1036046;28;4093;-51
2023/01/24 01:02:14;;;;;;;;;;;;;;;;;;1035305;28;3430;-54
2023/01/24 01:02:44;;;;;;;;;;;;;;;;;;1035991;28;3870;-48
2023/01/24 01:03:18;;;;;;;;;;;;;;;;;;1039756;28;2136;-48
2023/01/24 01:03:56;;;;;;;;;;;;;;;;;;1037692;28;4098;-47
2023/01/24 01:04:26;;;;;;;;;;;;;;;;;;1041865;28;2820;-51
2023/01/24 01:04:56;;;;;;;;;;;;;;;;;;1037559;28;4410;-49
2023/01/24 01:05:26;;;;;;;;;;;;;;;;;;1040975;28;2788;-50
2023/01/24 01:06:04;;;;;;;;;;;;;;;;;;1037499;28;4023;-50
2023/01/24 01:06:34;;;;;;;;;;;;;;;;;;1039536;28;2357;-53
2023/01/24 01:07:05;;;;;;;;;;;;;;;;;;1038489;28;3791;-50
2023/01/24 01:07:35;;;;;;;;;;;;;;;;;;1040104;28;2505;-48
2023/01/24 01:08:05;;;;;;;;;;;;;;;;;;1039257;28;4158;-53
2023/01/24 01:08:35;;;;;;;;;;;;;;;;;;1040430;28;2440;-49
2023/01/24 01:09:06;;;;;;;;;;;;;;;;;;1039196;28;4001;-53
2023/01/24 01:09:36;;;;;;;;;;;;;;;;;;1039796;28;3136;-49
2023/01/24 01:10:07;;;;;;;;;;;;;;;;;;1042392;28;4132;-50
2023/01/24 01:10:37;;;;;;;;;;;;;;;;;;1038958;28;4016;-52
2023/01/24 01:11:08;;;;;;;;;;;;;;;;;;1039203;28;3861;-47
2023/01/24 01:11:41;;;;;;;;;;;;;;;;;;1039274;28;2067;-52
2023/01/24 01:12:11;;;;;;;;;;;;;;;;;;1038971;28;3891;-50
2023/01/24 01:12:41;;;;;;;;;;;;;;;;;;1038683;28;4278;-51
2023/01/24 01:13:12;;;;;;;;;;;;;;;;;;1042610;28;1747;-51
2023/01/24 01:13:43;;;;;;;;;;;;;;;;;;1040491;28;4011;-48
2023/01/24 01:14:13;;;;;;;;;;;;;;;;;;1042963;28;2004;-50
2023/01/24 01:14:43;;;;;;;;;;;;;;;;;;1039870;28;3885;-51
2023/01/24 01:15:14;;;;;;;;;;;;;;;;;;1040131;28;2488;-50
2023/01/24 01:15:44;;;;;;;;;;;;;;;;;;1040384;28;3902;-51
2023/01/24 01:16:16;;;;;;;;;;;;;;;;;;1041639;28;1776;-51
2023/01/24 01:16:47;;;;;;;;;;;;;;;;;;1039915;28;3974;-51
2023/01/24 01:17:17;;;;;;;;;;;;;;;;;;1039190;28;2782;-53
2023/01/24 01:17:47;;;;;;;;;;;;;;;;;;1039606;28;4156;-53
2023/01/24 01:18:17;;;;;;;;;;;;;;;;;;1040240;28;3386;-50
2023/01/24 01:18:48;;;;;;;;;;;;;;;;;;1041495;28;4383;-48
2023/01/24 01:19:18;;;;;;;;;;;;;;;;;;1038799;28;2671;-51
2023/01/24 01:19:52;;;;;;;;;;;;;;;;;;1038823;28;4443;-53
2023/01/24 01:20:22;;;;;;;;;;;;;;;;;;1039356;28;2828;-52
2023/01/24 01:20:52;;;;;;;;;;;;;;;;;;1039703;28;3946;-52
2023/01/24 01:21:23;;;;;;;;;;;;;;;;;;1039374;28;3859;-52
2023/01/24 01:21:53;;;;;;;;;;;;;;;;;;1037492;28;4380;-52
2023/01/24 01:22:24;;;;;;;;;;;;;;;;;;1040204;28;2654;-55
2023/01/24 01:22:54;;;;;;;;;;;;;;;;;;1040047;28;4036;-48
2023/01/24 01:23:24;;;;;;;;;;;;;;;;;;1038860;28;2095;-54
2023/01/24 01:24:01;;;;;;;;;;;;;;;;;;1038493;28;3910;-52
2023/01/24 01:24:38;;;;;;;;;;;;;;;;;;1039080;28;2050;-52
2023/01/24 01:25:16;;;;;;;;;;;;;;;;;;1039718;28;5306;-47
2023/01/24 01:25:46;;;;;;;;;;;;;;;;;;1040371;28;3810;-49
2023/01/24 01:26:17;;;;;;;;;;;;;;;;;;1038820;28;2195;-50
2023/01/24 01:26:48;;;;;;;;;;;;;;;;;;1038232;28;4086;-49
2023/01/24 01:27:18;;;;;;;;;;;;;;;;;;1039783;28;3177;-49
2023/01/24 01:27:48;;;;;;;;;;;;;;;;;;1039090;28;4483;-47
2023/01/24 01:28:18;;;;;;;;;;;;;;;;;;1041670;28;2657;-50
2023/01/24 01:28:49;;;;;;;;;;;;;;;;;;1038786;28;3974;-55
2023/01/24 01:29:19;;;;;;;;;;;;;;;;;;1039721;28;2322;-49
2023/01/24 01:29:49;;;;;;;;;;;;;;;;;;1038170;28;4008;-51
2023/01/24 01:30:20;;;;;;;;;;;;;;;;;;1041106;28;2414;-51
2023/01/24 01:30:54;;;;;;;;;;;;;;;;;;1040208;28;4421;-49
2023/01/24 01:31:24;;;;;;;;;;;;;;;;;;1039622;28;2538;-47
2023/01/24 01:31:54;;;;;;;;;;;;;;;;;;1038597;28;3928;-50
2023/01/24 01:32:25;;;;;;;;;;;;;;;;;;1040041;28;2743;-50
2023/01/24 01:32:55;;;;;;;;;;;;;;;;;;1038952;28;4109;-47
2023/01/24 01:33:32;;;;;;;;;;;;;;;;;;1038759;28;2070;-49
2023/01/24 01:34:02;;;;;;;;;;;;;;;;;;1040772;28;3724;-52
2023/01/24 01:34:32;;;;;;;;;;;;;;;;;;1041040;28;2562;-53
2023/01/24 01:35:02;;;;;;;;;;;;;;;;;;1039006;28;4014;-48
2023/01/24 01:35:33;;;;;;;;;;;;;;;;;;1040713;28;2454;-50
2023/01/24 01:36:03;;;;;;;;;;;;;;;;;;1034252;28;4229;-50
2023/01/24 01:36:33;;;;;;;;;;;;;;;;;;1033055;28;1862;-50
2023/01/24 01:37:04;;;;;;;;;;;;;;;;;;1030936;28;3779;-50
2023/01/24 01:37:34;;;;;;;;;;;;;;;;;;1032807;28;2092;-49
2023/01/24 01:38:05;;;;;;;;;;;;;;;;;;1037013;28;4037;-52
2023/01/24 01:38:35;;;;;;;;;;;;;;;;;;1041374;28;2640;-50
2023/01/24 01:39:06;;;;;;;;;;;;;;;;;;1040975;28;4112;-48
2023/01/24 01:39:36;;;;;;;;;;;;;;;;;;1040925;28;2051;-50
2023/01/24 01:40:07;;;;;;;;;;;;;;;;;;1039584;28;3804;-50
2023/01/24 01:40:37;;;;;;;;;;;;;;;;;;1040440;28;2365;-51
2023/01/24 01:41:08;;;;;;;;;;;;;;;;;;1040491;28;3738;-51
2023/01/24 01:41:38;;;;;;;;;;;;;;;;;;1041853;28;2820;-52
2023/01/24 01:42:08;;;;;;;;;;;;;;;;;;1042240;28;3875;-52
2023/01/24 01:42:48;;;;;;;;;;;;;;;;;;1041633;28;2446;-48
2023/01/24 01:43:20;;;;;;;;;;;;;;;;;;1038409;28;5019;-53
2023/01/24 01:44:46;;;;;;;;;;;;;;;;;;1036549;28;2634;-50
2023/01/24 01:45:40;;;;;;;;;;;;;;;;;;1039773;28;3911;-50
2023/01/24 01:46:23;;;;;;;;;;;;;;;;;;1034147;28;4174;-51
2023/01/24 01:46:53;;;;;;;;;;;;;;;;;;1039455;28;3900;-52
2023/01/24 01:47:34;;;;;;;;;;;;;;;;;;1041474;28;2324;-50
2023/01/24 01:48:12;;;;;;;;;;;;;;;;;;1038629;28;3874;-48
2023/01/24 01:48:43;;;;;;;;;;;;;;;;;;1038971;28;4188;-52
2023/01/24 01:49:19;;;;;;;;;;;;;;;;;;1040893;28;2640;-53
2023/01/24 01:50:02;;;;;;;;;;;;;;;;;;1040471;28;5365;-47
2023/01/24 01:50:37;;;;;;;;;;;;;;;;;;1040827;28;2063;-50
2023/01/24 01:51:12;;;;;;;;;;;;;;;;;;1040826;28;3860;-52
2023/01/24 01:51:45;;;;;;;;;;;;;;;;;;1043172;28;4082;-50
2023/01/24 01:52:16;;;;;;;;;;;;;;;;;;1043296;28;1610;-49
2023/01/24 01:52:46;;;;;;;;;;;;;;;;;;1040354;28;3990;-52
2023/01/24 01:53:17;;;;;;;;;;;;;;;;;;1039992;28;2447;-50
2023/01/24 01:53:56;;;;;;;;;;;;;;;;;;1039408;28;4109;-49
2023/01/24 01:54:31;;;;;;;;;;;;;;;;;;1041783;28;3162;-52
2023/01/24 01:55:08;;;;;;;;;;;;;;;;;;1042067;28;4570;-50
2023/01/24 01:55:40;;;;;;;;;;;;;;;;;;1042915;28;1959;-53
2023/01/24 01:56:15;;;;;;;;;;;;;;;;;;1042956;28;3881;-50
2023/01/24 01:57:05;;;;;;;;;;;;;;;;;;1038979;28;4055;-50
2023/01/24 01:57:36;;;;;;;;;;;;;;;;;;1038307;28;1719;-47
2023/01/24 01:58:06;;;;;;;;;;;;;;;;;;1043467;28;3785;-51
2023/01/24 01:58:37;;;;;;;;;;;;;;;;;;1044028;28;1684;-49
2023/01/24 01:59:13;;;;;;;;;;;;;;;;;;1040589;28;3805;-52
2023/01/24 01:59:56;;;;;;;;;;;;;;;;;;1042083;28;4442;-53
2023/01/24 02:00:27;;;;;;;;;;;;;;;;;;1042552;28;2538;-50
2023/01/24 02:00:58;;;;;;;;;;;;;;;;;;1038682;28;3881;-52
2023/01/24 02:01:28;;;;;;;;;;;;;;;;;;1039626;28;2103;-50
2023/01/24 02:01:59;;;;;;;;;;;;;;;;;;1040832;28;4288;-50
2023/01/24 02:02:30;;;;;;;;;;;;;;;;;;1040880;28;2680;-52
2023/01/24 02:04:05;;;;;;;;;;;;;;;;;;1040304;28;4180;-50
2023/01/24 02:04:36;;;;;;;;;;;;;;;;;;1039411;28;1666;-50
2023/01/24 02:05:09;;;;;;;;;;;;;;;;;;1039332;28;4494;-51
2023/01/24 02:05:40;;;;;;;;;;;;;;;;;;1039408;28;3953;-53
2023/01/24 02:06:19;;;;;;;;;;;;;;;;;;1040529;28;2958;-51
2023/01/24 02:06:54;;;;;;;;;;;;;;;;;;1037453;28;4061;-49
2023/01/24 02:07:34;;;;;;;;;;;;;;;;;;1037229;28;2884;-52
2023/01/24 02:08:05;;;;;;;;;;;;;;;;;;1038807;28;3936;-49
2023/01/24 02:08:35;;;;;;;;;;;;;;;;;;1039879;28;2794;-52
2023/01/24 02:09:07;;;;;;;;;;;;;;;;;;1039386;28;4154;-52
2023/01/24 02:09:39;;;;;;;;;;;;;;;;;;1039500;28;2852;-53
2023/01/24 02:10:10;;;;;;;;;;;;;;;;;;1040232;28;3822;-52
2023/01/24 02:11:38;;;;;;;;;;;;;;;;;;1040423;28;1929;-50
2023/01/24 02:12:13;;;;;;;;;;;;;;;;;;1042659;28;3968;-49
2023/01/24 02:12:45;;;;;;;;;;;;;;;;;;1041441;28;4099;-49
2023/01/24 02:13:16;;;;;;;;;;;;;;;;;;1039871;28;1756;-50
2023/01/24 02:13:46;;;;;;;;;;;;;;;;;;1038563;28;4078;-49
2023/01/24 02:16:03;;;;;;;;;;;;;;;;;;1038431;28;3795;-52
2023/01/24 02:16:33;;;;;;;;;;;;;;;;;;1041833;28;3025;-48
2023/01/24 02:17:04;;;;;;;;;;;;;;;;;;1039637;28;3827;-50
2023/01/24 02:17:34;;;;;;;;;;;;;;;;;;1040180;28;2670;-53
2023/01/24 02:18:05;;;;;;;;;;;;;;;;;;1040314;28;3962;-53
2023/01/24 02:18:40;;;;;;;;;;;;;;;;;;1042478;28;1898;-50
2023/01/24 02:19:14;;;;;;;;;;;;;;;;;;1042335;28;4098;-51
2023/01/24 02:19:44;;;;;;;;;;;;;;;;;;1041115;28;3994;-50
2023/01/24 02:20:18;;;;;;;;;;;;;;;;;;1039928;28;2074;-54
2023/01/24 02:20:48;;;;;;;;;;;;;;;;;;1041589;28;4241;-46
2023/01/24 02:21:18;;;;;;;;;;;;;;;;;;1042582;28;2174;-52
2023/01/24 02:21:51;;;;;;;;;;;;;;;;;;1040613;28;3889;-52
2023/01/24 02:22:24;;;;;;;;;;;;;;;;;;1041705;28;2160;-51
2023/01/24 02:23:14;;;;;;;;;;;;;;;;;;1040735;28;3808;-54
2023/01/24 02:24:02;;;;;;;;;;;;;;;;;;1041859;28;3979;-51
2023/01/24 02:24:43;;;;;;;;;;;;;;;;;;1036302;28;2785;-54
2023/01/24 02:25:32;;;;;;;;;;;;;;;;;;1036967;28;3942;-49
2023/01/24 02:26:09;;;;;;;;;;;;;;;;;;1036776;28;3955;-54
2023/01/24 02:26:40;;;;;;;;;;;;;;;;;;1036362;28;4170;-50
2023/01/24 02:27:10;;;;;;;;;;;;;;;;;;1036339;28;2601;-50
2023/01/24 02:27:40;;;;;;;;;;;;;;;;;;1036683;28;3834;-52
2023/01/24 02:28:11;;;;;;;;;;;;;;;;;;1038985;28;1697;-50
2023/01/24 02:28:46;;;;;;;;;;;;;;;;;;1036015;28;4324;-47
2023/01/24 02:29:16;;;;;;;;;;;;;;;;;;1039119;28;2165;-48
2023/01/24 02:29:46;;;;;;;;;;;;;;;;;;1036651;28;4032;-49
2023/01/24 02:30:17;;;;;;;;;;;;;;;;;;1035145;28;2450;-52
2023/01/24 02:30:47;;;;;;;;;;;;;;;;;;1037937;28;3975;-51
2023/01/24 02:31:17;;;;;;;;;;;;;;;;;;1034894;28;2795;-51
2023/01/24 02:32:08;;;;;;;;;;;;;;;;;;1035957;28;4260;-48
2023/01/24 02:32:38;;;;;;;;;;;;;;;;;;1038575;28;1693;-51
2023/01/24 02:33:09;;;;;;;;;;;;;;;;;;1037502;28;3730;-52
2023/01/24 02:33:40;;;;;;;;;;;;;;;;;;1038430;28;3815;-51
2023/01/24 02:34:10;;;;;;;;;;;;;;;;;;1036639;28;2857;-47
2023/01/24 02:34:40;;;;;;;;;;;;;;;;;;1037490;28;4423;-51
2023/01/24 02:35:21;;;;;;;;;;;;;;;;;;1038582;28;1751;-51
2023/01/24 02:36:06;;;;;;;;;;;;;;;;;;1036249;28;4432;-54
2023/01/24 02:36:37;;;;;;;;;;;;;;;;;;1037282;28;2671;-52
2023/01/24 02:37:10;;;;;;;;;;;;;;;;;;1036094;28;4372;-52
2023/01/24 02:37:40;;;;;;;;;;;;;;;;;;1036773;28;4318;-50
2023/01/24 02:38:14;;;;;;;;;;;;;;;;;;1036018;28;2077;-52
2023/01/24 02:38:46;;;;;;;;;;;;;;;;;;1034593;28;3975;-48
2023/01/24 02:39:18;;;;;;;;;;;;;;;;;;1040384;28;2272;-51
2023/01/24 02:40:01;;;;;;;;;;;;;;;;;;1038687;28;3827;-53
2023/01/24 02:40:32;;;;;;;;;;;;;;;;;;1040035;28;2570;-49
2023/01/24 02:41:06;;;;;;;;;;;;;;;;;;1038832;28;3751;-54
2023/01/24 02:41:43;;;;;;;;;;;;;;;;;;1035938;28;2175;-53
2023/01/24 02:42:16;;;;;;;;;;;;;;;;;;1037570;28;3882;-49
2023/01/24 02:42:46;;;;;;;;;;;;;;;;;;1036080;28;4000;-51
2023/01/24 02:43:18;;;;;;;;;;;;;;;;;;1037936;28;2388;-54
2023/01/24 02:43:49;;;;;;;;;;;;;;;;;;1035376;28;3955;-52
2023/01/24 02:44:22;;;;;;;;;;;;;;;;;;1036580;28;2102;-48
2023/01/24 02:44:53;;;;;;;;;;;;;;;;;;1036047;28;4273;-51
2023/01/24 02:45:25;;;;;;;;;;;;;;;;;;1036870;28;2988;-51
2023/01/24 02:45:55;;;;;;;;;;;;;;;;;;1035874;28;4624;-51
2023/01/24 02:46:28;;;;;;;;;;;;;;;;;;1034521;28;2203;-51
2023/01/24 02:46:58;;;;;;;;;;;;;;;;;;1036586;28;4597;-48
2023/01/24 02:47:32;;;;;;;;;;;;;;;;;;1036839;28;2641;-50
2023/01/24 02:48:02;;;;;;;;;;;;;;;;;;1036537;28;3894;-52
2023/01/24 02:48:33;;;;;;;;;;;;;;;;;;1037471;28;2095;-55
2023/01/24 02:49:07;;;;;;;;;;;;;;;;;;1035237;28;4027;-48
2023/01/24 02:49:37;;;;;;;;;;;;;;;;;;1036119;28;2647;-49
2023/01/24 02:50:08;;;;;;;;;;;;;;;;;;1035088;28;4345;-53
2023/01/24 02:53:54;;;;;;;;;;;;;;;;;;1036088;28;4069;-52
2023/01/24 02:54:24;;;;;;;;;;;;;;;;;;1037324;28;2817;-51
2023/01/24 02:54:54;;;;;;;;;;;;;;;;;;1036324;28;4623;-52
2023/01/24 02:55:25;;;;;;;;;;;;;;;;;;1035802;28;2579;-46
2023/01/24 02:58:23;;;;;;;;;;;;;;;;;;1035988;28;3877;-52
2023/01/24 02:58:54;;;;;;;;;;;;;;;;;;1036249;28;4251;-54
2023/01/24 02:59:25;;;;;;;;;;;;;;;;;;1038026;28;2105;-51
2023/01/24 02:59:56;;;;;;;;;;;;;;;;;;1035849;28;4340;-50
2023/01/24 03:00:26;;;;;;;;;;;;;;;;;;1033912;28;2923;-48
2023/01/24 03:00:56;;;;;;;;;;;;;;;;;;1038277;28;3809;-49
2023/01/24 03:01:27;;;;;;;;;;;;;;;;;;1035203;28;2271;-49
2023/01/24 03:01:57;;;;;;;;;;;;;;;;;;1036573;28;4148;-52
2023/01/24 03:02:27;;;;;;;;;;;;;;;;;;1037059;28;3307;-51
2023/01/24 03:02:57;;;;;;;;;;;;;;;;;;1035304;28;4016;-49
2023/01/24 03:03:27;;;;;;;;;;;;;;;;;;1036400;28;2048;-52
2023/01/24 03:03:58;;;;;;;;;;;;;;;;;;1034852;28;4406;-51
2023/01/24 03:04:28;;;;;;;;;;;;;;;;;;1035248;28;2586;-50
2023/01/24 03:04:58;;;;;;;;;;;;;;;;;;1036821;28;4038;-53
2023/01/24 03:05:39;;;;;;;;;;;;;;;;;;1037204;28;2170;-52
2023/01/24 03:06:10;;;;;;;;;;;;;;;;;;1037123;28;3723;-50
2023/01/24 03:06:40;;;;;;;;;;;;;;;;;;1036005;28;3954;-49
2023/01/24 03:07:10;;;;;;;;;;;;;;;;;;1034855;28;2334;-49
2023/01/24 03:07:43;;;;;;;;;;;;;;;;;;1037473;28;4272;-47
2023/01/24 03:08:13;;;;;;;;;;;;;;;;;;1035985;28;2961;-50
2023/01/24 03:08:43;;;;;;;;;;;;;;;;;;1035269;28;4491;-49
2023/01/24 03:09:33;;;;;;;;;;;;;;;;;;1036030;28;3151;-50
2023/01/24 03:10:03;;;;;;;;;;;;;;;;;;1033143;28;4161;-52
2023/01/24 03:10:34;;;;;;;;;;;;;;;;;;1037714;28;1701;-51
2023/01/24 03:11:05;;;;;;;;;;;;;;;;;;1037232;28;4420;-49
2023/01/24 03:11:35;;;;;;;;;;;;;;;;;;1037893;28;2876;-52
2023/01/24 03:34:33;;;;;;;;;;;;;;;;;;1032825;28;3868;-52
2023/01/24 03:35:03;;;;;;;;;;;;;;;;;;1032096;28;4122;-51
2023/01/24 03:35:33;;;;;;;;;;;;;;;;;;1032274;28;2559;-52
2023/01/24 03:36:06;;;;;;;;;;;;;;;;;;1032503;28;4138;-45
2023/01/24 03:36:36;;;;;;;;;;;;;;;;;;1032616;28;1803;-51
2023/01/24 03:37:06;;;;;;;;;;;;;;;;;;1034028;28;3868;-49
2023/01/24 03:40:06;;;;;;;;;;;;;;;;;;1032582;28;3839;-52
2023/01/24 03:40:36;;;;;;;;;;;;;;;;;;1031324;28;2687;-50
2023/01/24 03:41:07;;;;;;;;;;;;;;;;;;1032556;28;3965;-48
2023/01/24 03:41:37;;;;;;;;;;;;;;;;;;1033971;28;2539;-51
2023/01/24 03:42:07;;;;;;;;;;;;;;;;;;1031699;28;3786;-52
2023/01/24 03:42:46;;;;;;;;;;;;;;;;;;1031963;28;2912;-50
2023/01/24 03:43:16;;;;;;;;;;;;;;;;;;1030258;28;3637;-50
2023/01/24 03:43:47;;;;;;;;;;;;;;;;;;1030837;28;3995;-50
2023/01/24 03:44:17;;;;;;;;;;;;;;;;;;1032429;28;2474;-50
2023/01/24 03:44:47;;;;;;;;;;;;;;;;;;1031355;28;3991;-54
2023/01/24 03:45:19;;;;;;;;;;;;;;;;;;1031433;28;2913;-53
2023/01/24 03:45:51;;;;;;;;;;;;;;;;;;1032206;28;4450;-48
2023/01/24 03:46:22;;;;;;;;;;;;;;;;;;1033989;28;2783;-52
2023/01/24 03:46:52;;;;;;;;;;;;;;;;;;1030447;28;4036;-51
2023/01/24 03:47:22;;;;;;;;;;;;;;;;;;1033233;28;2719;-49
2023/01/24 03:47:56;;;;;;;;;;;;;;;;;;1033431;28;4169;-49
2023/01/24 03:48:34;;;;;;;;;;;;;;;;;;1031243;28;2699;-52
2023/01/24 03:49:04;;;;;;;;;;;;;;;;;;1030600;28;4059;-47
2023/01/24 03:52:54;;;;;;;;;;;;;;;;;;1030867;28;3789;-51
2023/01/24 03:53:25;;;;;;;;;;;;;;;;;;1032168;28;1479;-49
2023/01/24 03:53:56;;;;;;;;;;;;;;;;;;1030336;28;3943;-51
2023/01/24 03:54:26;;;;;;;;;;;;;;;;;;1031512;28;1853;-52
2023/01/24 03:54:57;;;;;;;;;;;;;;;;;;1032326;28;4164;-51
2023/01/24 03:55:28;;;;;;;;;;;;;;;;;;1032163;28;3089;-51
2023/01/24 03:56:00;;;;;;;;;;;;;;;;;;1031873;28;3950;-50
2023/01/24 03:56:30;;;;;;;;;;;;;;;;;;1031407;28;2414;-50
2023/01/24 03:57:02;;;;;;;;;;;;;;;;;;1030886;28;3871;-52
2023/01/24 03:57:32;;;;;;;;;;;;;;;;;;1031476;28;1757;-48
2023/01/24 03:58:02;;;;;;;;;;;;;;;;;;1030851;28;3828;-50
2023/01/24 03:58:33;;;;;;;;;;;;;;;;;;1032001;28;2738;-47
2023/01/24 03:59:03;;;;;;;;;;;;;;;;;;1033026;28;4416;-48
2023/01/24 03:59:33;;;;;;;;;;;;;;;;;;1032254;28;2055;-50
2023/01/24 04:00:04;;;;;;;;;;;;;;;;;;1037009;28;3883;-51
2023/01/24 04:00:34;;;;;;;;;;;;;;;;;;1036924;28;2307;-52
2023/01/24 04:01:04;;;;;;;;;;;;;;;;;;1034903;28;3882;-51
2023/01/24 04:01:35;;;;;;;;;;;;;;;;;;1037422;28;2648;-52
2023/01/24 04:02:05;;;;;;;;;;;;;;;;;;1030606;28;4041;-48
2023/01/24 04:02:35;;;;;;;;;;;;;;;;;;1031730;28;1680;-50
2023/01/24 04:03:05;;;;;;;;;;;;;;;;;;1031141;28;3943;-47
2023/01/24 04:03:36;;;;;;;;;;;;;;;;;;1030515;28;2033;-54
2023/01/24 04:04:07;;;;;;;;;;;;;;;;;;1032482;28;3935;-51
2023/01/24 04:05:27;;;;;;;;;;;;;;;;;;1032494;28;5877;-49
2023/01/24 04:05:57;;;;;;;;;;;;;;;;;;1032388;28;4241;-49
2023/01/24 04:06:27;;;;;;;;;;;;;;;;;;1033188;28;2722;-50
2023/01/24 04:06:57;;;;;;;;;;;;;;;;;;1032330;28;3867;-51
2023/01/24 04:07:28;;;;;;;;;;;;;;;;;;1030940;28;1765;-48
2023/01/24 04:07:58;;;;;;;;;;;;;;;;;;1032021;28;3790;-52
2023/01/24 04:08:29;;;;;;;;;;;;;;;;;;1030746;28;1918;-52
2023/01/24 04:08:59;;;;;;;;;;;;;;;;;;1031991;28;4375;-51
2023/01/24 04:09:29;;;;;;;;;;;;;;;;;;1031027;28;2611;-48
2023/01/24 04:09:59;;;;;;;;;;;;;;;;;;1031473;28;4268;-49
2023/01/24 04:10:30;;;;;;;;;;;;;;;;;;1030675;28;1969;-50
2023/01/24 04:11:00;;;;;;;;;;;;;;;;;;1030988;28;4599;-50
2023/01/24 04:11:31;;;;;;;;;;;;;;;;;;1032539;28;2693;-52
2023/01/24 04:12:01;;;;;;;;;;;;;;;;;;1033762;28;4246;-53
2023/01/24 04:12:32;;;;;;;;;;;;;;;;;;1030387;28;1727;-52
2023/01/24 04:13:02;;;;;;;;;;;;;;;;;;1032296;28;4567;-48
2023/01/24 04:13:32;;;;;;;;;;;;;;;;;;1032734;28;2823;-53
2023/01/24 04:14:02;;;;;;;;;;;;;;;;;;1031377;28;4087;-49
2023/01/24 04:14:33;;;;;;;;;;;;;;;;;;1031923;28;2827;-54
2023/01/24 04:15:03;;;;;;;;;;;;;;;;;;1031928;28;4055;-49
2023/01/24 04:15:33;;;;;;;;;;;;;;;;;;1032288;28;2244;-50
2023/01/24 04:16:11;;;;;;;;;;;;;;;;;;1032340;28;3816;-49
2023/01/24 04:16:41;;;;;;;;;;;;;;;;;;1030004;28;4035;-49
2023/01/24 04:17:11;;;;;;;;;;;;;;;;;;1032019;28;2081;-52
2023/01/24 04:17:41;;;;;;;;;;;;;;;;;;1030170;28;4502;-49
2023/01/24 04:18:12;;;;;;;;;;;;;;;;;;1032466;28;2116;-53
2023/01/24 04:18:43;;;;;;;;;;;;;;;;;;1032119;28;3789;-50
2023/01/24 04:19:13;;;;;;;;;;;;;;;;;;1032176;28;2040;-49
2023/01/24 04:19:44;;;;;;;;;;;;;;;;;;1029401;28;4449;-49